Kayseri Erkilet Airport

LTAU · 开塞利省, 土耳其

罗盘
风向 的 风向 040° Kayseri Erkilet Airport 7/25
风: 4 kt, 2 beaufort

3 kt

2 kt
改变
0 ft 2.000 4.000 6.000 8.000 10.000
Cloud Cloud Cloud Cloud
SCT 4.000
Cloud Cloud Cloud Cloud Cloud Cloud
BKN 8.000
METAR LTAU 032150Z 04004KT 6000 SCT040 BKN080 03/03 Q1015 NOSIG RMK RWY07 35003KT

METAR Kayseri Erkilet Airport - LTAU/ASR

Kayseri Erkilet Airport是,土耳其中的中型机场。 该机场位于纬度38,77040和经度35,49540。 该机场有一条跑道: 7/25. 本场的ICAO机场代码为LTAU。 该机场的IATA代码为ASR。 机场在Ankara FIR中。

该航空气象观测是针对Kayseri Erkilet Airport在2024年3月4日 00:50, 当地时间进行的。

机场观察

风向为040°,速度为4 kt。

可见度为6 km。

有疏云,零星散落的云朵在4.000 ft的高度 和 碎云在8.000 ft的高度。 破损或更高的上限为8.000 ft。

温度为3 °C,阵风为-1 °C。 露点为3 °C,相对湿度为100%。 海平面上的气压为1015 hPa (QNH)。

白天

今天,太阳从07:06升起,在18:33降落。 这适用于Kayseri Erkilet Airport,世界夏令时可能有所不同。 当地时间与世界标准时间之间的时差为+3 小时。 当前,没有夏令时有效。

公司介绍

我们没有关于这个机场的公司信息。

体会

到Vliegles.nl去找飞行课程,跳伞和其他飞行体验。 浏览页面,了解Kayseri Erkilet Airport附近所有可用的活动。 你也可以使用搜索功能来寻找你所在地附近的特定飞行课程、跳伞或其他飞行体验。

跑道

Id 标题 侧风 逆风 侧风 %
7/25 076°-256° 2 kt 3 kt 59 %

逆风成分最大的方向会被突出显示,并用于横风计算。 这并不一定意味着这个方向在使用。

乌云

4.000 ft SCT 疏云,零星散落的云朵
8.000 ft BKN 碎云

温度 & 天气

温度 3 °C
露点 3 °C
相对湿度 100%
风寒 -1 °C
Kp-index 3 (0-9)

评论

RWY07 35003KT

白天

日出
07:06 (5:50)
中午
12:49
日落
18:33

小工具

你想在你的网站上有一个关于Kayseri Erkilet Airport的当前航空天气(METAR)的小部件吗?

显示HTML代码
?>